Fairlawn, Virginia
Current Conditions -  °F | °C
As of 8:15 AM on Friday 31 Oct 2014 (Local Time) from KPSK Reporting Station
Clear Clear  
Wind Chill:   Ceiling: Unl
Heat Index:   Visibility: 7mi
Dew Point:   Wind: 0mph
Humidity: 99%   Direction: NA
Pressure: 29.98"   Gusts: NA
Location:  37.1746°N, 80.6425°W
Report Text: KPSK 311215Z AUTO 00000KT 7SM CLR 01/01 A2998 RMK AO2 T00140012
Loading
Personal Weather Stations






























Interactive Weather Map
Tropical Storm Tracking
New forecast layout! Learn more

10-Day Weather Forecast

Advertisements
Track Severe Weather on mobile